Time;durP1;ratioP1;P1;durP2;ratioP2;P2;SDS_P1;SDS_P2;PMS_P1;PMS_P2;Temp;Humidity;BMP_temperature;BMP_pressure;BME280_temperature;BME280_humidity;BME280_pressure;Samples;Min_cycle;Max_cycle;Signal;HPM_P1;HPM_P2
2024/03/01 00:00:37;;;;;;;31.50;17.65;;;3.40;99.90;;;;;;5026164;28;20693;-52
2024/03/01 00:03:05;;;;;;;38.85;19.52;;;3.30;99.90;;;;;;5026124;28;20518;-48
2024/03/01 00:05:33;;;;;;;31.13;16.88;;;3.30;99.90;;;;;;5027701;28;20048;-47
2024/03/01 00:08:00;;;;;;;36.75;19.13;;;3.40;99.90;;;;;;5025567;28;20038;-49
2024/03/01 00:10:27;;;;;;;34.38;17.75;;;3.30;99.90;;;;;;5025360;28;20096;-47
2024/03/01 00:12:54;;;;;;;35.28;17.73;;;3.30;99.90;;;;;;5024939;28;20438;-50
2024/03/01 00:15:22;;;;;;;33.03;16.95;;;3.30;99.90;;;;;;5032701;28;20038;-47
2024/03/01 00:17:48;;;;;;;36.28;17.73;;;3.30;99.90;;;;;;5029474;28;20041;-51
2024/03/01 00:20:15;;;;;;;31.10;17.23;;;3.20;99.90;;;;;;5028422;28;20041;-51
2024/03/01 00:22:43;;;;;;;34.55;17.58;;;3.20;99.90;;;;;;5024583;28;20165;-49
2024/03/01 00:25:10;;;;;;;36.35;17.75;;;3.10;99.90;;;;;;5031224;28;20568;-46
2024/03/01 00:27:37;;;;;;;35.10;16.40;;;3.10;99.90;;;;;;5028395;28;20083;-47
2024/03/01 00:30:04;;;;;;;35.50;17.50;;;3.00;99.90;;;;;;5027540;28;20057;-48
2024/03/01 00:32:32;;;;;;;34.17;17.13;;;3.00;99.90;;;;;;5029444;28;20045;-51
2024/03/01 00:34:59;;;;;;;39.50;18.90;;;3.00;99.90;;;;;;5027584;28;20241;-49
2024/03/01 00:37:26;;;;;;;35.35;17.45;;;3.00;99.90;;;;;;5025194;28;20499;-51
2024/03/01 00:39:53;;;;;;;36.35;19.08;;;2.90;99.90;;;;;;5026518;28;20556;-50
2024/03/01 00:42:20;;;;;;;38.08;18.02;;;2.90;99.90;;;;;;5026628;28;20033;-50
2024/03/01 00:44:47;;;;;;;34.50;18.33;;;2.80;99.90;;;;;;5025902;28;20048;-50
2024/03/01 00:47:14;;;;;;;33.92;17.45;;;2.90;99.90;;;;;;5026355;28;20052;-50
2024/03/01 00:49:41;;;;;;;32.40;17.48;;;2.80;99.90;;;;;;5026189;28;20406;-46
2024/03/01 00:52:08;;;;;;;35.17;18.23;;;2.80;99.90;;;;;;5026986;28;20061;-47
2024/03/01 00:54:35;;;;;;;40.35;17.92;;;2.80;99.90;;;;;;5027330;28;20059;-46
2024/03/01 00:57:02;;;;;;;35.15;18.23;;;2.70;99.90;;;;;;5026972;28;20049;-48
2024/03/01 00:59:29;;;;;;;33.47;17.55;;;2.70;99.90;;;;;;5028688;28;20075;-46
2024/03/01 01:01:56;;;;;;;42.47;19.70;;;2.70;99.90;;;;;;5028401;28;20092;-54
2024/03/01 01:04:23;;;;;;;36.10;18.15;;;2.70;99.90;;;;;;5027464;28;20140;-50
2024/03/01 01:06:51;;;;;;;38.40;19.17;;;2.70;99.90;;;;;;5028470;28;20080;-52
2024/03/01 01:09:18;;;;;;;39.03;19.35;;;2.70;99.90;;;;;;5027210;28;20046;-45
2024/03/01 01:11:44;;;;;;;40.22;19.88;;;2.70;99.90;;;;;;5024024;28;20053;-49
2024/03/01 01:14:11;;;;;;;40.72;20.95;;;2.70;99.90;;;;;;5025801;28;20080;-47
2024/03/01 01:16:38;;;;;;;34.75;19.48;;;2.70;99.90;;;;;;5027584;28;20522;-51
2024/03/01 01:19:05;;;;;;;39.13;19.98;;;2.70;99.90;;;;;;5025816;28;20041;-47
2024/03/01 01:21:33;;;;;;;37.15;19.15;;;2.70;99.90;;;;;;5025722;28;20042;-47
2024/03/01 01:24:00;;;;;;;37.60;18.55;;;2.80;99.90;;;;;;5025405;28;20065;-47
2024/03/01 01:26:27;;;;;;;36.83;19.35;;;2.80;99.90;;;;;;5025711;28;20041;-52
2024/03/01 01:28:54;;;;;;;34.33;18.45;;;2.80;99.90;;;;;;5026425;28;20133;-48
2024/03/01 01:31:24;;;;;;;36.08;18.95;;;2.80;99.90;;;;;;5025515;28;20263;-47
2024/03/01 01:33:57;;;;;;;35.78;17.95;;;2.80;99.90;;;;;;5025689;28;20067;-47
2024/03/01 01:36:24;;;;;;;38.17;18.65;;;2.80;99.90;;;;;;5022919;28;20037;-48
2024/03/01 01:38:51;;;;;;;29.77;17.60;;;2.80;99.90;;;;;;5010275;28;20045;-47
2024/03/01 01:41:18;;;;;;;37.17;17.80;;;2.80;99.90;;;;;;5026058;28;20459;-46
2024/03/01 01:43:45;;;;;;;31.10;16.63;;;2.80;99.90;;;;;;5024408;28;20553;-49
2024/03/01 01:46:16;;;;;;;34.20;17.25;;;2.80;99.90;;;;;;5025744;28;20068;-44
2024/03/01 01:48:43;;;;;;;36.95;17.80;;;2.70;99.90;;;;;;5025566;28;20055;-47
2024/03/01 01:51:16;;;;;;;38.15;18.02;;;2.70;99.90;;;;;;5025671;28;20140;-48
2024/03/01 01:53:44;;;;;;;34.45;17.48;;;2.70;99.90;;;;;;5026638;28;20124;-44
2024/03/01 01:56:13;;;;;;;32.00;17.13;;;2.70;99.90;;;;;;5025934;28;20034;-47
2024/03/01 01:58:42;;;;;;;29.20;16.50;;;2.70;99.90;;;;;;5023459;28;20046;-53
2024/03/01 02:01:09;;;;;;;31.15;16.67;;;2.60;99.90;;;;;;5029990;28;20045;-47
2024/03/01 02:03:39;;;;;;;29.45;16.40;;;2.60;99.90;;;;;;5032033;28;20387;-47
2024/03/01 02:06:07;;;;;;;33.65;16.52;;;2.60;99.90;;;;;;5026206;28;20037;-47
2024/03/01 02:08:35;;;;;;;31.17;16.67;;;2.60;99.90;;;;;;5029688;28;20044;-50
2024/03/01 02:11:04;;;;;;;31.98;16.25;;;2.50;99.90;;;;;;5029942;28;20048;-49
2024/03/01 02:13:32;;;;;;;31.25;16.42;;;2.50;99.90;;;;;;5029482;28;20049;-53
2024/03/01 02:15:59;;;;;;;33.33;16.20;;;2.50;99.90;;;;;;5032595;28;20087;-49
2024/03/01 02:18:27;;;;;;;29.23;16.02;;;2.40;99.90;;;;;;5030337;28;20120;-55
2024/03/01 02:21:00;;;;;;;31.40;16.80;;;2.40;99.90;;;;;;5029689;28;20073;-51
2024/03/01 02:23:28;;;;;;;29.83;15.52;;;2.40;99.90;;;;;;5028457;28;20041;-50
2024/03/01 02:25:55;;;;;;;32.67;15.13;;;2.40;99.90;;;;;;5030717;28;20088;-50
2024/03/01 02:28:22;;;;;;;30.92;14.95;;;2.40;99.90;;;;;;5031228;28;20140;-47
2024/03/01 02:30:51;;;;;;;31.02;15.57;;;2.40;99.90;;;;;;5028986;28;20119;-53
2024/03/01 02:33:19;;;;;;;33.05;16.05;;;2.40;99.90;;;;;;5028776;28;20045;-47
2024/03/01 02:35:47;;;;;;;29.50;16.58;;;2.40;99.90;;;;;;5028717;28;20137;-46
2024/03/01 02:38:14;;;;;;;33.30;16.80;;;2.40;99.90;;;;;;5019137;28;20439;-43
2024/03/01 02:40:41;;;;;;;33.45;17.33;;;2.40;99.90;;;;;;5027542;28;20554;-52
2024/03/01 02:43:09;;;;;;;29.98;16.38;;;2.40;99.90;;;;;;5027735;28;20124;-47
2024/03/01 02:45:36;;;;;;;36.38;17.65;;;2.40;99.90;;;;;;5027363;28;20296;-48
2024/03/01 02:48:05;;;;;;;35.03;17.48;;;2.30;99.90;;;;;;5028966;28;20056;-50
2024/03/01 02:50:32;;;;;;;33.40;16.88;;;2.30;99.90;;;;;;5027642;28;20099;-44
2024/03/01 02:52:59;;;;;;;38.92;17.92;;;2.30;99.90;;;;;;5030243;28;20147;-47
2024/03/01 02:55:25;;;;;;;34.90;17.02;;;2.30;99.90;;;;;;5026321;28;20721;-47
2024/03/01 02:57:54;;;;;;;30.30;17.58;;;2.20;99.90;;;;;;5020697;28;20034;-47
2024/03/01 03:00:22;;;;;;;33.65;15.77;;;2.20;99.90;;;;;;5028853;28;20041;-51
2024/03/01 03:02:51;;;;;;;28.77;15.95;;;2.10;99.90;;;;;;5026374;28;20053;-46
2024/03/01 03:05:19;;;;;;;32.40;16.15;;;2.10;99.90;;;;;;5029809;28;20225;-45
2024/03/01 03:07:48;;;;;;;33.97;16.88;;;2.10;99.90;;;;;;5027647;28;20382;-48
2024/03/01 03:10:16;;;;;;;36.42;17.85;;;2.10;99.90;;;;;;5025624;28;20118;-49
2024/03/01 03:12:44;;;;;;;33.67;16.85;;;2.10;99.90;;;;;;5027476;28;20047;-47
2024/03/01 03:15:11;;;;;;;36.42;16.83;;;2.00;99.90;;;;;;5028341;28;20045;-46
2024/03/01 03:17:38;;;;;;;32.45;17.48;;;2.00;99.90;;;;;;5027902;28;20414;-51
2024/03/01 03:20:12;;;;;;;36.33;19.38;;;2.00;99.90;;;;;;5028338;28;20044;-47
2024/03/01 03:22:42;;;;;;;40.45;19.92;;;1.90;99.90;;;;;;5029444;28;20053;-50
2024/03/01 03:25:12;;;;;;;36.47;16.45;;;1.90;99.90;;;;;;5029143;28;20046;-49
2024/03/01 03:27:40;;;;;;;35.97;17.45;;;1.90;99.90;;;;;;5027783;28;20053;-45
2024/03/01 03:30:08;;;;;;;41.40;18.23;;;1.80;99.90;;;;;;5030545;28;20042;-48
2024/03/01 03:32:35;;;;;;;36.55;18.05;;;1.80;99.90;;;;;;5026963;28;20045;-52
2024/03/01 03:35:04;;;;;;;35.45;17.23;;;1.80;99.90;;;;;;5027651;28;20041;-46
2024/03/01 03:37:32;;;;;;;36.63;17.55;;;1.80;99.90;;;;;;5030930;28;20041;-48
2024/03/01 03:39:59;;;;;;;35.08;17.50;;;1.70;99.90;;;;;;5030377;28;20045;-46
2024/03/01 03:42:26;;;;;;;35.45;17.48;;;1.80;99.90;;;;;;5027282;28;20386;-43
2024/03/01 03:44:53;;;;;;;34.33;17.92;;;1.80;99.90;;;;;;5027563;28;20506;-49
2024/03/01 03:47:20;;;;;;;32.13;16.55;;;1.70;99.90;;;;;;5026842;28;20041;-51
2024/03/01 03:49:47;;;;;;;32.28;17.48;;;1.70;99.90;;;;;;5025704;28;20103;-52
2024/03/01 03:52:14;;;;;;;36.28;17.05;;;1.70;99.90;;;;;;5027312;28;20121;-49
2024/03/01 03:54:42;;;;;;;35.17;16.65;;;1.70;99.90;;;;;;5029010;28;20502;-46
2024/03/01 03:57:09;;;;;;;33.15;17.92;;;1.70;99.90;;;;;;5026419;28;20037;-53
2024/03/01 03:59:36;;;;;;;33.50;16.42;;;1.80;99.90;;;;;;5028616;28;20045;-50
2024/03/01 04:02:03;;;;;;;27.10;15.13;;;1.80;99.90;;;;;;4995293;28;20536;-49
2024/03/01 04:04:30;;;;;;;35.78;19.67;;;1.80;99.90;;;;;;5008363;28;20046;-46
2024/03/01 04:06:57;;;;;;;33.35;18.08;;;1.80;99.90;;;;;;5028492;28;20120;-52
2024/03/01 04:09:25;;;;;;;42.15;17.63;;;1.80;99.90;;;;;;5026811;28;20651;-51
2024/03/01 04:11:52;;;;;;;36.88;18.27;;;1.80;99.90;;;;;;5027208;28;20049;-50
2024/03/01 04:14:19;;;;;;;36.95;17.45;;;1.80;99.90;;;;;;5026648;28;20119;-46
2024/03/01 04:16:46;;;;;;;38.08;17.88;;;1.90;99.90;;;;;;5029872;28;20051;-47
2024/03/01 04:19:14;;;;;;;36.22;18.77;;;1.90;99.90;;;;;;5029849;28;20072;-54
2024/03/01 04:21:42;;;;;;;34.33;17.58;;;1.90;99.90;;;;;;5027927;28;20045;-49
2024/03/01 04:24:11;;;;;;;33.20;16.33;;;1.90;99.90;;;;;;5024361;28;20501;-50
2024/03/01 04:26:39;;;;;;;40.63;17.70;;;1.90;99.90;;;;;;5024095;28;20248;-54
2024/03/01 04:29:06;;;;;;;32.47;16.98;;;1.90;99.90;;;;;;5028122;28;20037;-52
2024/03/01 04:31:33;;;;;;;37.90;18.27;;;1.90;99.90;;;;;;5026157;28;20045;-47
2024/03/01 04:34:04;;;;;;;33.47;17.48;;;1.90;99.90;;;;;;5027058;28;20037;-48
2024/03/01 04:36:34;;;;;;;34.75;16.85;;;1.90;99.90;;;;;;5026326;28;20040;-49
2024/03/01 04:39:03;;;;;;;40.20;17.90;;;1.90;99.90;;;;;;5025303;28;20116;-53
2024/03/01 04:41:30;;;;;;;37.03;19.02;;;1.90;99.90;;;;;;5026103;28;20029;-48
2024/03/01 04:43:57;;;;;;;34.95;17.25;;;1.90;99.90;;;;;;5025555;28;20131;-49
2024/03/01 04:46:25;;;;;;;33.20;16.75;;;1.90;99.90;;;;;;5026723;28;20046;-51
2024/03/01 04:48:53;;;;;;;34.30;18.33;;;1.90;99.90;;;;;;5026324;28;20045;-46
2024/03/01 04:51:24;;;;;;;35.60;17.45;;;2.00;99.90;;;;;;5030606;28;20045;-44
2024/03/01 04:53:51;;;;;;;37.80;18.88;;;2.00;99.90;;;;;;5027497;28;20184;-48
2024/03/01 04:56:18;;;;;;;36.22;17.80;;;2.00;99.90;;;;;;5026036;28;20045;-51
2024/03/01 04:58:45;;;;;;;37.13;18.25;;;2.00;99.90;;;;;;5006661;28;20041;-46
2024/03/01 05:01:12;;;;;;;34.95;17.90;;;2.00;99.90;;;;;;5025504;28;20069;-48
2024/03/01 05:03:43;;;;;;;37.50;17.60;;;2.00;99.90;;;;;;5024270;28;20068;-47
2024/03/01 05:06:10;;;;;;;36.83;17.83;;;2.00;99.90;;;;;;5025101;28;20122;-52
2024/03/01 05:08:38;;;;;;;35.03;16.92;;;2.00;99.90;;;;;;5023885;28;20091;-51
2024/03/01 05:11:05;;;;;;;32.88;16.85;;;2.00;99.90;;;;;;5025450;28;20049;-51
2024/03/01 05:13:32;;;;;;;39.42;19.05;;;2.00;99.90;;;;;;5024990;28;20049;-49
2024/03/01 05:16:00;;;;;;;32.35;17.25;;;2.00;99.90;;;;;;5026341;28;20503;-51
2024/03/01 05:18:27;;;;;;;36.63;18.02;;;2.00;99.90;;;;;;5026247;28;20037;-50
2024/03/01 05:20:54;;;;;;;35.00;16.20;;;2.00;99.90;;;;;;5027296;28;20108;-52
2024/03/01 05:23:22;;;;;;;36.35;18.05;;;2.00;99.90;;;;;;5027247;28;20145;-49
2024/03/01 05:25:49;;;;;;;34.10;17.98;;;2.10;99.90;;;;;;5026264;28;20045;-48
2024/03/01 05:28:16;;;;;;;31.67;16.23;;;2.10;99.90;;;;;;5026028;28;20133;-54
2024/03/01 05:30:44;;;;;;;34.58;17.55;;;2.10;99.90;;;;;;5025959;28;20049;-48
2024/03/01 05:33:18;;;;;;;31.50;16.83;;;2.10;99.90;;;;;;5027595;28;20408;-52
2024/03/01 05:35:46;;;;;;;32.58;16.30;;;2.20;99.90;;;;;;5025778;28;20112;-47
2024/03/01 05:38:13;;;;;;;34.50;17.58;;;2.20;99.90;;;;;;5024627;28;20413;-47
2024/03/01 05:40:40;;;;;;;28.08;16.02;;;2.20;99.90;;;;;;5023620;28;20088;-47
2024/03/01 05:43:21;;;;;;;31.35;17.38;;;2.30;99.90;;;;;;5003649;28;20750;-49
2024/03/01 05:45:48;;;;;;;33.85;16.83;;;2.30;99.90;;;;;;5023237;28;20249;-52
2024/03/01 05:48:16;;;;;;;31.08;16.92;;;2.40;99.90;;;;;;5023351;28;20060;-50
2024/03/01 05:50:43;;;;;;;32.92;16.15;;;2.40;99.90;;;;;;5023139;28;20134;-49
2024/03/01 05:53:14;;;;;;;35.00;16.45;;;2.50;99.90;;;;;;5025083;28;20057;-45
2024/03/01 05:55:43;;;;;;;27.33;15.80;;;2.50;99.90;;;;;;5023570;28;20168;-52
2024/03/01 05:58:10;;;;;;;29.55;15.68;;;2.50;99.90;;;;;;5024955;28;20576;-46
2024/03/01 06:00:40;;;;;;;32.38;16.20;;;2.60;99.90;;;;;;5025206;28;20145;-47
2024/03/01 06:03:08;;;;;;;32.63;18.20;;;2.60;99.90;;;;;;5023290;28;20119;-50
2024/03/01 06:05:36;;;;;;;30.67;16.63;;;2.60;99.90;;;;;;5024462;28;20037;-43
2024/03/01 06:08:03;;;;;;;31.35;16.42;;;2.60;99.90;;;;;;5018629;28;20084;-46
2024/03/01 06:10:30;;;;;;;30.73;16.80;;;2.70;99.90;;;;;;5022809;28;20152;-48
2024/03/01 06:12:57;;;;;;;31.27;16.40;;;2.70;99.90;;;;;;5024167;28;20088;-52
2024/03/01 06:15:26;;;;;;;33.83;18.00;;;2.80;99.90;;;;;;5025808;28;20139;-45
2024/03/01 06:17:53;;;;;;;35.30;19.13;;;2.80;99.90;;;;;;5026366;28;20482;-48
2024/03/01 06:20:20;;;;;;;37.97;18.70;;;2.80;99.90;;;;;;5026035;28;20502;-46
2024/03/01 06:22:47;;;;;;;41.22;19.83;;;2.90;99.90;;;;;;5025115;28;20068;-48
2024/03/01 06:25:14;;;;;;;40.00;20.10;;;2.90;99.90;;;;;;5026038;28;20412;-48
2024/03/01 06:27:41;;;;;;;37.30;20.02;;;3.00;99.90;;;;;;5022859;28;20049;-51
2024/03/01 06:30:08;;;;;;;39.35;20.13;;;2.90;99.90;;;;;;5024172;28;20050;-52
2024/03/01 06:32:35;;;;;;;41.38;21.38;;;3.00;99.90;;;;;;5022580;28;20042;-47
2024/03/01 06:35:03;;;;;;;38.00;20.02;;;3.00;99.90;;;;;;5022130;28;20524;-53
2024/03/01 06:37:31;;;;;;;37.08;19.38;;;3.10;99.90;;;;;;5022342;28;20042;-50
2024/03/01 06:39:58;;;;;;;38.30;20.35;;;3.10;99.90;;;;;;5020244;28;20076;-46
2024/03/01 06:42:25;;;;;;;39.30;20.77;;;3.20;99.90;;;;;;5025071;28;20064;-51
2024/03/01 06:44:52;;;;;;;39.65;20.38;;;3.30;99.90;;;;;;5025131;28;20527;-52
2024/03/01 06:47:19;;;;;;;38.47;21.17;;;3.30;99.90;;;;;;5032174;28;20049;-51
2024/03/01 06:49:49;;;;;;;39.13;19.33;;;3.40;99.90;;;;;;5025391;28;20049;-49
2024/03/01 06:52:16;;;;;;;36.33;19.25;;;3.50;99.90;;;;;;5029997;28;20043;-49
2024/03/01 06:54:46;;;;;;;37.92;18.30;;;3.50;99.90;;;;;;5029730;28;20072;-48
2024/03/01 06:57:13;;;;;;;35.83;18.90;;;3.50;99.90;;;;;;5029158;28;20472;-47
2024/03/01 06:59:40;;;;;;;38.92;19.25;;;3.50;99.90;;;;;;5033723;28;20558;-55
2024/03/01 07:02:07;;;;;;;41.25;20.17;;;3.60;99.90;;;;;;5024708;28;20052;-48
2024/03/01 07:04:34;;;;;;;38.15;19.85;;;3.60;99.90;;;;;;5028169;28;20033;-48
2024/03/01 07:07:01;;;;;;;37.10;20.25;;;3.70;99.90;;;;;;5027724;28;20049;-53
2024/03/01 07:09:28;;;;;;;40.40;20.25;;;3.80;99.90;;;;;;5027993;28;20068;-49
2024/03/01 07:11:55;;;;;;;36.22;18.85;;;3.80;99.90;;;;;;5028460;28;20510;-47
2024/03/01 07:14:22;;;;;;;37.80;19.27;;;3.90;99.90;;;;;;5027697;28;20057;-48
2024/03/01 07:16:49;;;;;;;40.45;19.55;;;4.00;99.90;;;;;;5029146;28;20081;-49
2024/03/01 07:19:17;;;;;;;36.03;18.50;;;4.00;99.90;;;;;;5029873;28;20069;-49
2024/03/01 07:21:44;;;;;;;32.80;18.52;;;4.20;99.90;;;;;;5025482;28;20056;-50
2024/03/01 07:24:11;;;;;;;35.15;19.10;;;4.20;99.90;;;;;;5027951;28;20057;-50
2024/03/01 07:26:38;;;;;;;34.15;18.98;;;4.30;99.90;;;;;;5026538;28;20080;-52
2024/03/01 07:29:05;;;;;;;35.67;18.98;;;4.30;99.90;;;;;;5027510;28;20057;-48
2024/03/01 07:31:32;;;;;;;35.45;18.30;;;4.30;99.90;;;;;;5027855;28;20125;-48
2024/03/01 07:33:59;;;;;;;38.08;18.60;;;4.30;99.90;;;;;;5027784;28;20045;-43
2024/03/01 07:36:26;;;;;;;37.10;19.02;;;4.40;99.90;;;;;;5029857;28;20045;-46
2024/03/01 07:38:53;;;;;;;37.83;19.33;;;4.40;99.90;;;;;;5028191;28;20049;-49
2024/03/01 07:41:21;;;;;;;35.53;20.02;;;4.40;99.90;;;;;;5027910;28;20073;-50
2024/03/01 07:43:48;;;;;;;49.42;22.48;;;4.40;99.90;;;;;;5027704;28;20053;-47
2024/03/01 07:46:16;;;;;;;45.55;20.83;;;4.50;99.90;;;;;;5028208;28;20567;-48
2024/03/01 07:48:45;;;;;;;41.30;21.83;;;4.50;99.90;;;;;;5027699;28;20049;-46
2024/03/01 07:51:13;;;;;;;43.22;20.83;;;4.60;99.90;;;;;;5028583;28;20049;-49
2024/03/01 07:53:43;;;;;;;36.03;19.65;;;4.70;99.90;;;;;;5032592;28;20049;-46
2024/03/01 07:56:10;;;;;;;35.03;18.25;;;4.80;99.90;;;;;;5034491;28;20176;-57
2024/03/01 07:58:37;;;;;;;38.08;19.88;;;4.80;99.90;;;;;;5031088;28;20046;-47
2024/03/01 08:01:05;;;;;;;32.95;18.08;;;4.90;99.90;;;;;;5027034;28;20038;-47
2024/03/01 08:03:34;;;;;;;39.70;19.55;;;4.90;99.90;;;;;;5026550;28;20047;-49
2024/03/01 08:06:01;;;;;;;41.30;19.13;;;5.10;99.90;;;;;;5027998;28;20073;-48
2024/03/01 08:08:44;;;;;;;32.65;18.88;;;5.10;99.90;;;;;;5027459;28;20470;-50
2024/03/01 08:11:23;;;;;;;36.67;19.35;;;5.20;99.90;;;;;;5028597;28;20422;-49
2024/03/01 08:13:50;;;;;;;32.50;17.67;;;5.30;99.90;;;;;;5026719;28;20137;-51
2024/03/01 08:16:21;;;;;;;34.95;18.42;;;5.40;99.90;;;;;;5029147;28;20056;-56
2024/03/01 08:18:48;;;;;;;36.10;19.42;;;5.50;99.90;;;;;;5029906;28;20042;-46
2024/03/01 08:21:16;;;;;;;33.88;19.50;;;5.60;99.90;;;;;;5027614;28;20124;-49
2024/03/01 08:23:43;;;;;;;32.90;18.50;;;5.80;99.90;;;;;;5029634;28;20514;-44
2024/03/01 08:26:13;;;;;;;35.45;17.65;;;5.80;99.90;;;;;;5029134;28;20395;-50
2024/03/01 08:28:44;;;;;;;30.80;17.80;;;5.80;99.90;;;;;;5027676;28;20566;-48
2024/03/01 08:31:26;;;;;;;37.60;20.30;;;5.90;99.90;;;;;;5023396;28;20563;-51
2024/03/01 08:34:08;;;;;;;36.80;18.50;;;6.00;99.90;;;;;;5027455;28;20504;-49
2024/03/01 08:36:35;;;;;;;;;;;6.10;99.90;;;;;;5028532;28;20045;-48
2024/03/01 08:39:10;;;;;;;34.85;18.92;;;6.10;99.90;;;;;;5024233;28;19935;-48
2024/03/01 08:41:40;;;;;;;36.70;19.13;;;6.30;99.90;;;;;;5025424;28;20045;-46
2024/03/01 08:44:36;;;;;;;35.10;19.38;;;6.50;99.90;;;;;;5026329;28;20072;-48
2024/03/01 08:47:04;;;;;;;36.33;19.25;;;6.80;99.90;;;;;;5027408;28;20120;-47
2024/03/01 08:49:44;;;;;;;39.30;20.77;;;6.80;99.90;;;;;;5025663;28;20571;-46
2024/03/01 08:52:24;;;;;;;34.33;18.95;;;6.90;99.90;;;;;;5022109;28;20045;-44
2024/03/01 08:54:55;;;;;;;35.58;20.05;;;7.00;99.90;;;;;;5024550;28;20127;-44
2024/03/01 08:57:26;;;;;;;35.80;20.27;;;7.10;99.90;;;;;;5023544;28;20115;-48
2024/03/01 08:59:53;;;;;;;41.25;21.23;;;7.20;99.90;;;;;;5026282;28;20081;-49
2024/03/01 09:02:26;;;;;;;38.70;19.88;;;7.20;99.90;;;;;;5024723;28;20045;-47
2024/03/01 09:04:53;;;;;;;38.13;20.55;;;7.10;99.90;;;;;;5024631;28;20049;-47
2024/03/01 09:07:31;;;;;;;34.13;20.35;;;7.20;99.90;;;;;;5026043;28;20072;-47
2024/03/01 09:09:58;;;;;;;35.78;21.00;;;7.30;99.90;;;;;;5021441;28;20068;-50
2024/03/01 09:12:30;;;;;;;32.92;19.02;;;7.40;99.90;;;;;;5025540;28;20403;-49
2024/03/01 09:14:58;;;;;;;;;;;7.60;99.90;;;;;;5025561;28;20134;-47
2024/03/01 09:17:26;;;;;;;34.75;19.30;;;7.70;99.90;;;;;;5024965;28;19968;-50
2024/03/01 09:19:53;;;;;;;36.47;21.35;;;7.70;99.90;;;;;;5025337;28;20557;-52
2024/03/01 09:22:20;;;;;;;34.03;20.48;;;7.80;99.90;;;;;;5026515;28;20105;-45
2024/03/01 09:24:47;;;;;;;30.63;19.40;;;7.90;99.90;;;;;;5025624;28;20076;-49
2024/03/01 09:27:29;;;;;;;37.90;21.35;;;8.00;99.90;;;;;;5024478;28;20528;-46
2024/03/01 09:29:57;;;;;;;38.83;20.65;;;8.10;99.90;;;;;;5025888;28;20132;-48
2024/03/01 09:32:24;;;;;;;36.65;20.38;;;8.10;99.90;;;;;;5025393;28;20076;-50
2024/03/01 09:34:51;;;;;;;38.38;20.85;;;8.00;99.90;;;;;;5026975;28;20060;-51
2024/03/01 09:37:22;;;;;;;35.00;20.75;;;8.20;99.90;;;;;;5025185;28;20433;-55
2024/03/01 09:39:50;;;;;;;38.85;20.27;;;8.50;99.90;;;;;;5019309;28;20103;-52
2024/03/01 09:42:39;;;;;;;35.95;20.88;;;8.70;99.90;;;;;;5026942;28;20041;-52
2024/03/01 09:45:45;;;;;;;35.88;20.55;;;8.90;99.90;;;;;;5023690;28;20088;-45
2024/03/01 09:48:52;;;;;;;40.97;21.95;;;8.90;99.90;;;;;;5007420;28;20568;-47
2024/03/01 09:51:34;;;;;;;40.08;21.63;;;8.80;99.90;;;;;;5025918;28;20041;-47
2024/03/01 09:54:04;;;;;;;45.50;22.65;;;9.00;99.90;;;;;;5026282;28;20052;-50
2024/03/01 09:56:44;;;;;;;42.97;22.70;;;9.10;99.90;;;;;;5025462;28;20140;-45
2024/03/01 09:59:45;;;;;;;41.75;23.25;;;9.20;99.90;;;;;;5027777;28;20125;-50
2024/03/01 10:02:49;;;;;;;38.92;22.38;;;8.80;99.90;;;;;;5023440;28;20057;-47
2024/03/01 10:06:01;;;;;;;36.63;22.10;;;8.90;99.90;;;;;;5027395;28;20131;-50
2024/03/01 10:08:53;;;;;;;38.38;22.40;;;9.10;99.90;;;;;;5026706;28;20053;-53
2024/03/01 10:11:51;;;;;;;40.90;23.65;;;9.40;99.90;;;;;;5026997;28;20117;-49
2024/03/01 10:14:24;;;;;;;42.88;24.30;;;9.40;99.90;;;;;;5027147;28;20072;-50
2024/03/01 10:17:11;;;;;;;38.13;22.98;;;9.00;99.90;;;;;;5023104;28;20084;-51
2024/03/01 10:20:18;;;;;;;43.45;24.98;;;8.90;99.90;;;;;;5025708;28;20048;-46
2024/03/01 10:23:15;;;;;;;44.50;27.23;;;9.10;99.90;;;;;;5026922;28;20480;-53
2024/03/01 10:25:52;;;;;;;42.45;25.15;;;9.30;99.90;;;;;;5033167;28;20056;-47
2024/03/01 10:28:31;;;;;;;42.53;25.52;;;9.30;99.90;;;;;;5029671;28;20045;-54
2024/03/01 10:31:26;;;;;;;43.53;25.20;;;8.90;99.90;;;;;;5029936;28;20422;-48
2024/03/01 10:34:06;;;;;;;40.63;25.23;;;8.80;99.90;;;;;;5031388;28;20294;-49
2024/03/01 10:36:43;;;;;;;43.38;25.13;;;9.00;99.90;;;;;;5030292;28;20131;-50
2024/03/01 10:39:16;;;;;;;40.67;24.85;;;9.20;99.90;;;;;;5025912;28;20055;-52
2024/03/01 10:42:13;;;;;;;41.88;24.25;;;9.60;99.90;;;;;;5029958;28;20065;-51
2024/03/01 10:44:52;;;;;;;43.72;24.45;;;9.80;99.90;;;;;;5028644;28;20045;-51
2024/03/01 10:47:23;;;;;;;41.55;24.73;;;10.10;99.90;;;;;;5027414;28;20549;-48
2024/03/01 10:50:12;;;;;;;48.80;26.95;;;10.30;99.90;;;;;;5029684;28;20072;-52
2024/03/01 10:53:15;;;;;;;40.92;24.65;;;10.50;99.90;;;;;;5033108;28;20049;-54
2024/03/01 10:55:52;;;;;;;41.97;25.25;;;10.50;99.90;;;;;;5028454;28;20065;-54
2024/03/01 10:58:37;;;;;;;43.90;25.15;;;10.60;99.90;;;;;;5026643;28;20045;-49
2024/03/01 11:01:18;;;;;;;45.35;27.00;;;10.40;99.90;;;;;;5029284;28;20350;-49
2024/03/01 11:03:53;;;;;;;48.50;27.13;;;10.70;99.90;;;;;;5027476;28;20037;-48
2024/03/01 11:06:28;;;;;;;44.17;27.30;;;10.90;99.90;;;;;;5030558;28;20053;-51
2024/03/01 11:09:09;;;;;;;47.45;27.58;;;11.00;99.90;;;;;;5026804;28;20068;-48
2024/03/01 11:11:45;;;;;;;43.95;26.80;;;11.10;99.90;;;;;;5028834;28;20505;-50
2024/03/01 11:14:17;;;;;;;44.85;26.48;;;11.40;99.90;;;;;;5022632;28;20111;-52
2024/03/01 11:16:49;;;;;;;46.13;27.35;;;11.40;99.90;;;;;;5028734;28;20104;-47
2024/03/01 11:19:22;;;;;;;43.58;27.20;;;11.70;99.90;;;;;;5026596;28;20060;-46
2024/03/01 11:22:01;;;;;;;45.78;27.42;;;11.60;99.90;;;;;;5027363;28;20128;-46
2024/03/01 11:24:32;;;;;;;47.53;26.85;;;11.70;99.90;;;;;;5025250;28;20056;-45
2024/03/01 11:27:04;;;;;;;51.65;28.27;;;12.10;99.90;;;;;;5027074;28;20148;-47
2024/03/01 11:29:41;;;;;;;46.53;27.90;;;12.40;99.90;;;;;;5026367;28;20120;-55
2024/03/01 11:32:20;;;;;;;43.40;26.73;;;12.30;99.90;;;;;;5025931;28;20042;-49
2024/03/01 11:35:09;;;;;;;44.42;27.60;;;12.50;99.90;;;;;;5028601;28;20047;-50
2024/03/01 11:37:59;;;;;;;45.47;27.65;;;12.80;99.90;;;;;;5025948;28;20033;-45
2024/03/01 11:41:26;;;;;;;44.90;27.90;;;13.30;99.90;;;;;;5027304;28;20042;-49
2024/03/01 11:44:18;;;;;;;50.00;28.52;;;13.50;99.90;;;;;;4945872;28;20079;-50
2024/03/01 11:47:17;;;;;;;48.13;27.47;;;13.10;99.90;;;;;;4949204;28;20609;-53
2024/03/01 11:50:07;;;;;;;42.88;27.92;;;13.20;99.90;;;;;;4946300;28;20394;-45
2024/03/01 11:52:52;;;;;;;49.40;30.02;;;13.10;99.90;;;;;;4950082;28;20435;-50
2024/03/01 11:55:34;;;;;;;44.00;28.13;;;13.40;99.90;;;;;;4945971;28;20058;-49
2024/03/01 11:58:01;;;;;;;44.08;27.02;;;13.50;99.90;;;;;;4948335;28;20524;-46
2024/03/01 12:01:05;;;;;;;46.83;27.92;;;13.90;99.90;;;;;;4949753;28;20074;-46
2024/03/01 12:03:46;;;;;;;48.05;27.98;;;14.10;99.90;;;;;;4943534;28;20269;-51
2024/03/01 12:06:53;;;;;;;47.45;29.23;;;14.20;99.90;;;;;;4949730;28;20074;-49
2024/03/01 12:09:41;;;;;;;46.03;28.52;;;14.30;99.90;;;;;;4944389;28;20055;-47
2024/03/01 12:12:27;;;;;;;43.83;28.33;;;14.70;99.90;;;;;;4951955;28;20666;-47
2024/03/01 12:15:08;;;;;;;47.95;29.52;;;14.70;99.90;;;;;;4990320;28;20049;-50
2024/03/01 12:17:47;;;;;;;47.25;29.30;;;14.50;99.90;;;;;;5024008;28;20126;-48
2024/03/01 12:20:16;;;;;;;46.92;29.88;;;14.40;99.90;;;;;;5025832;28;20042;-49
2024/03/01 12:22:55;;;;;;;44.65;27.80;;;14.50;99.90;;;;;;5025950;28;20729;-48
2024/03/01 12:25:24;;;;;;;45.42;30.52;;;14.60;99.90;;;;;;5022921;28;20041;-50
2024/03/01 12:28:10;;;;;;;43.97;27.85;;;14.70;99.90;;;;;;5025953;28;20060;-53
2024/03/01 12:30:37;;;;;;;45.45;28.50;;;14.70;99.90;;;;;;5025329;28;20421;-48
2024/03/01 12:33:32;;;;;;;37.95;26.50;;;14.20;99.90;;;;;;5026660;28;20084;-49
2024/03/01 12:36:07;;;;;;;43.22;28.17;;;14.70;99.90;;;;;;5025271;28;20069;-50
2024/03/01 12:38:36;;;;;;;44.17;28.27;;;14.40;99.90;;;;;;5024732;28;20045;-46
2024/03/01 12:41:19;;;;;;;42.08;27.58;;;14.50;99.90;;;;;;5025340;28;20491;-53
2024/03/01 12:44:05;;;;;;;44.25;27.10;;;14.20;99.90;;;;;;5023262;28;20057;-51
2024/03/01 12:47:02;;;;;;;40.33;25.90;;;13.90;99.90;;;;;;5024474;28;20451;-52
2024/03/01 12:49:55;;;;;;;41.20;27.40;;;13.80;99.90;;;;;;5026199;28;20057;-53
2024/03/01 12:52:43;;;;;;;41.38;26.48;;;13.80;99.90;;;;;;4928677;29;20614;-50
2024/03/01 12:55:27;;;;;;;45.80;27.13;;;13.60;99.90;;;;;;4927232;29;20051;-45
2024/03/01 12:58:28;;;;;;;44.28;27.00;;;13.50;99.90;;;;;;4924928;29;20052;-48
2024/03/01 13:01:29;;;;;;;45.88;27.73;;;13.60;99.90;;;;;;4928736;29;20124;-48